Campina, Romania
Current Conditions -  °F | °C
As of 12:30 AM on Friday 19 Dec 2014 (Local Time) from LROP Reporting Station
Moderate Fog Moderate Fog  
Wind Chill: 31°   Ceiling: Unl
Heat Index: 36°   Visibility: 0.12mi
Dew Point: 36°   Wind: 6mph
Humidity: 100%   Direction: 250°WSW
Pressure: 30.12"   Gusts: NA
Location:  45.13°N, 25.74°E
Report Text: LROP 182130Z 25005KT 0200 R08R/0700N R26L/0700NR08L/0650V0800N R26R/0600N FG VV000 02/02 Q1020 NOSIG
Loading
Personal Weather Stations






























Interactive Weather Map New forecast layout! Learn more

10-Day Weather Forecast

Advertisements
Track Severe Weather on mobile